Time;durP1;ratioP1;P1;durP2;ratioP2;P2;SDS_P1;SDS_P2;PMS_P1;PMS_P2;Temp;Humidity;BMP_temperature;BMP_pressure;BME280_temperature;BME280_humidity;BME280_pressure;Samples;Min_cycle;Max_cycle;Signal;HPM_P1;HPM_P2
2023/01/03 00:00:09;;;;;;;0.57;0.57;;;9.70;73.90;;;;;;4991275;28;20025;-76
2023/01/03 00:02:35;;;;;;;1.83;1.20;;;9.60;74.10;;;;;;4990784;28;20041;-76
2023/01/03 00:05:02;;;;;;;1.15;0.50;;;9.60;74.30;;;;;;4991287;28;20018;-77
2023/01/03 00:07:33;;;;;;;0.52;0.50;;;9.50;74.50;;;;;;4989900;28;20027;-76
2023/01/03 00:10:05;;;;;;;1.80;0.73;;;9.40;74.60;;;;;;4990696;28;20019;-76
2023/01/03 00:12:31;;;;;;;0.45;0.40;;;9.40;74.70;;;;;;4990808;28;20022;-76
2023/01/03 00:14:58;;;;;;;0.40;0.40;;;9.40;74.20;;;;;;4990845;28;20046;-75
2023/01/03 00:17:24;;;;;;;0.50;0.50;;;9.40;74.40;;;;;;4990875;28;20025;-76
2023/01/03 00:19:49;;;;;;;0.95;0.50;;;9.40;74.10;;;;;;4990484;28;20069;-76
2023/01/03 00:22:16;;;;;;;0.30;0.30;;;9.50;74.40;;;;;;4991049;28;20111;-76
2023/01/03 00:24:44;;;;;;;0.93;0.50;;;9.50;74.10;;;;;;4990611;28;20101;-76
2023/01/03 00:27:10;;;;;;;0.30;0.30;;;9.50;74.20;;;;;;4990904;28;20048;-75
2023/01/03 00:29:36;;;;;;;0.40;0.30;;;9.60;74.00;;;;;;4990771;28;20037;-77
2023/01/03 00:32:02;;;;;;;0.60;0.50;;;9.60;74.60;;;;;;4990762;28;20061;-77
2023/01/03 00:34:28;;;;;;;0.30;0.30;;;9.70;73.50;;;;;;4990510;28;20483;-76
2023/01/03 00:36:54;;;;;;;0.82;0.32;;;9.70;73.30;;;;;;4989211;28;20031;-76
2023/01/03 00:39:20;;;;;;;0.63;0.30;;;9.80;73.10;;;;;;4990667;28;20027;-76
2023/01/03 00:41:45;;;;;;;0.40;0.40;;;9.80;73.00;;;;;;4990653;28;20054;-76
2023/01/03 00:44:11;;;;;;;0.50;0.38;;;9.90;72.90;;;;;;4990465;28;20073;-76
2023/01/03 00:46:37;;;;;;;0.40;0.40;;;9.90;72.60;;;;;;4990477;28;20050;-75
2023/01/03 00:49:04;;;;;;;0.30;0.30;;;9.90;72.40;;;;;;4990636;28;20387;-75
2023/01/03 00:51:31;;;;;;;0.40;0.40;;;9.90;72.20;;;;;;4990259;28;20126;-76
2023/01/03 00:53:58;;;;;;;1.20;0.57;;;9.90;72.00;;;;;;4990207;28;20479;-77
2023/01/03 00:56:32;;;;;;;0.57;0.45;;;9.90;71.60;;;;;;4990338;28;20479;-77
2023/01/03 00:58:58;;;;;;;0.80;0.30;;;9.90;71.50;;;;;;4990506;28;20034;-75
2023/01/03 01:01:27;;;;;;;0.95;0.60;;;9.90;71.60;;;;;;4972843;28;20029;-75
2023/01/03 01:04:04;;;;;;;2.80;0.52;;;9.90;71.80;;;;;;4990188;28;20023;-75
2023/01/03 01:06:33;;;;;;;1.30;0.60;;;9.80;72.30;;;;;;4990389;28;20019;-74
2023/01/03 01:09:01;;;;;;;1.98;0.85;;;9.90;72.80;;;;;;4990019;28;20029;-75
2023/01/03 01:11:28;;;;;;;2.05;0.60;;;9.90;72.70;;;;;;4990009;28;20041;-75
2023/01/03 01:13:54;;;;;;;0.65;0.45;;;9.90;72.80;;;;;;4989780;28;20038;-75
2023/01/03 01:16:25;;;;;;;1.88;0.40;;;9.90;73.70;;;;;;4990183;28;20383;-76
2023/01/03 01:18:55;;;;;;;1.38;0.68;;;9.90;73.00;;;;;;4989572;28;20038;-76
2023/01/03 01:21:27;;;;;;;0.63;0.40;;;9.90;73.10;;;;;;4993353;28;20022;-76
2023/01/03 01:23:53;;;;;;;0.50;0.47;;;9.80;73.10;;;;;;4993136;28;20075;-76
2023/01/03 01:26:22;;;;;;;1.02;0.68;;;9.90;73.30;;;;;;4993228;28;20030;-75
2023/01/03 01:28:48;;;;;;;6.15;2.40;;;9.90;73.30;;;;;;4993066;28;20547;-76
2023/01/03 01:31:16;;;;;;;5.13;1.70;;;9.80;72.90;;;;;;4993162;28;20433;-76
2023/01/03 01:33:42;;;;;;;1.92;0.93;;;9.80;72.70;;;;;;4993119;28;20493;-75
2023/01/03 01:36:17;;;;;;;0.95;0.63;;;9.90;72.60;;;;;;4993092;28;20058;-75
2023/01/03 01:38:44;;;;;;;0.95;0.38;;;9.80;72.10;;;;;;4993038;28;20022;-75
2023/01/03 01:41:13;;;;;;;0.40;0.40;;;9.80;72.10;;;;;;4992534;28;20030;-76
2023/01/03 01:46:40;;;;;;;0.57;0.52;;;9.70;72.20;;;;;;4992637;28;20079;-76
2023/01/03 01:49:13;;;;;;;1.65;0.63;;;9.80;71.80;;;;;;4975387;28;20474;-75
2023/01/03 01:51:39;;;;;;;1.95;0.80;;;9.70;71.60;;;;;;4992572;28;20559;-76
2023/01/03 01:54:05;;;;;;;3.78;1.23;;;9.80;71.70;;;;;;4992571;28;20039;-76
2023/01/03 01:56:39;;;;;;;4.15;1.60;;;9.70;72.00;;;;;;4975186;28;20025;-75
2023/01/03 01:59:07;;;;;;;2.08;1.00;;;9.70;72.80;;;;;;4992451;28;20152;-76
2023/01/03 02:01:33;;;;;;;1.45;0.80;;;9.70;73.20;;;;;;4992644;28;20050;-75
2023/01/03 02:04:04;;;;;;;0.63;0.60;;;9.70;73.60;;;;;;4992410;28;20030;-76
2023/01/03 02:06:31;;;;;;;0.90;0.50;;;9.60;73.20;;;;;;4992622;28;20038;-75
2023/01/03 02:08:57;;;;;;;0.65;0.52;;;9.70;73.40;;;;;;4992332;28;20027;-75
2023/01/03 02:13:04;;;;;;;0.50;0.38;;;9.70;73.50;;;;;;4992579;28;20045;-75
2023/01/03 02:14:43;;;;;;;0.75;0.70;;;9.70;73.20;;;;;;5006974;28;20061;-75
2023/01/03 02:17:19;;;;;;;1.60;0.75;;;9.70;73.20;;;;;;4992451;28;20054;-75
2023/01/03 02:20:04;;;;;;;2.67;1.17;;;9.70;73.60;;;;;;4992411;28;20028;-75
2023/01/03 02:22:59;;;;;;;1.80;1.00;;;9.60;73.90;;;;;;4992231;28;20041;-75
2023/01/03 02:25:42;;;;;;;1.48;0.80;;;9.60;74.20;;;;;;4954632;28;20074;-75
2023/01/03 02:28:39;;;;;;;1.10;0.68;;;9.60;74.70;;;;;;4992051;28;20033;-75
2023/01/03 02:31:12;;;;;;;1.55;0.73;;;9.60;75.00;;;;;;4991370;28;20026;-75
2023/01/03 02:33:56;;;;;;;1.10;0.60;;;9.60;75.10;;;;;;4991479;28;20035;-75
2023/01/03 02:36:49;;;;;;;1.88;0.68;;;9.60;75.10;;;;;;4991624;28;20018;-77
2023/01/03 02:39:17;;;;;;;2.45;0.82;;;9.70;75.10;;;;;;4951979;28;20039;-75
2023/01/03 02:45:15;;;;;;;1.58;0.90;;;9.60;75.00;;;;;;4991861;28;20116;-75
2023/01/03 02:47:50;;;;;;;2.15;1.63;;;9.70;74.70;;;;;;4985816;28;20034;-75
2023/01/03 02:50:17;;;;;;;;;;;9.60;74.50;;;;;;4991655;28;20041;-76
2023/01/03 02:52:45;;;;;;;3.15;1.00;;;9.60;74.60;;;;;;4991503;28;19996;-77
2023/01/03 02:55:18;;;;;;;2.33;0.88;;;9.60;74.50;;;;;;4991532;28;20113;-77
2023/01/03 02:57:51;;;;;;;0.90;0.75;;;9.60;74.60;;;;;;4991526;28;20014;-77
2023/01/03 03:00:23;;;;;;;0.73;0.70;;;9.60;74.70;;;;;;4991234;28;20420;-76
2023/01/03 03:03:05;;;;;;;2.05;0.98;;;9.60;74.50;;;;;;4991185;28;20423;-76
2023/01/03 03:05:42;;;;;;;1.67;0.70;;;9.60;74.50;;;;;;4991452;28;20204;-76
2023/01/03 03:08:08;;;;;;;1.13;0.82;;;9.50;74.80;;;;;;4991336;28;20111;-77
2023/01/03 03:13:35;;;;;;;0.98;0.60;;;9.50;74.70;;;;;;4991496;28;20037;-76
2023/01/03 03:16:10;;;;;;;1.63;0.68;;;9.50;74.50;;;;;;4991428;28;20022;-76
2023/01/03 03:18:53;;;;;;;0.90;0.60;;;9.40;74.40;;;;;;4991245;28;20035;-76
2023/01/03 03:28:33;;;;;;;1.08;0.70;;;9.40;74.70;;;;;;4991464;28;20409;-77
2023/01/03 03:29:47;;;;;;;1.33;0.63;;;9.40;75.00;;;;;;4991044;28;20110;-76
2023/01/03 03:32:12;;;;;;;2.00;0.85;;;9.40;75.10;;;;;;4991177;28;20022;-77
2023/01/03 03:34:41;;;;;;;0.68;0.60;;;9.40;75.50;;;;;;4990751;28;20524;-77
2023/01/03 03:37:15;;;;;;;0.55;0.52;;;9.40;75.80;;;;;;4990839;28;20054;-77
2023/01/03 03:45:28;;;;;;;1.55;0.90;;;9.30;76.10;;;;;;4990630;28;20034;-77
2023/01/03 03:48:02;;;;;;;1.75;0.90;;;9.30;76.20;;;;;;4990903;28;20030;-76
2023/01/03 03:50:52;;;;;;;1.27;0.88;;;9.30;76.30;;;;;;4973192;28;20034;-76
2023/01/03 03:53:23;;;;;;;0.82;0.60;;;9.20;76.30;;;;;;4990605;28;20027;-76
2023/01/03 03:55:57;;;;;;;1.05;0.68;;;9.30;76.40;;;;;;4973093;28;20103;-76
2023/01/03 03:58:51;;;;;;;1.08;0.68;;;9.30;76.50;;;;;;4990666;28;20018;-76
2023/01/03 04:01:21;;;;;;;0.85;0.50;;;9.30;76.30;;;;;;4986535;28;20537;-76
2023/01/03 04:03:48;;;;;;;1.55;0.70;;;9.20;76.00;;;;;;4990273;28;20031;-76
2023/01/03 04:06:27;;;;;;;0.63;0.50;;;9.30;76.10;;;;;;4973162;28;20072;-76
2023/01/03 04:08:52;;;;;;;0.95;0.57;;;9.30;75.90;;;;;;4990479;28;20470;-74
2023/01/03 04:11:18;;;;;;;1.95;0.60;;;9.20;75.80;;;;;;4990364;28;20101;-74
2023/01/03 04:13:43;;;;;;;0.95;0.80;;;9.20;75.70;;;;;;4990033;28;20038;-75
2023/01/03 04:16:10;;;;;;;1.40;0.80;;;9.10;76.30;;;;;;4990430;28;20547;-75
2023/01/03 04:18:35;;;;;;;2.05;0.70;;;9.10;76.70;;;;;;4990427;28;20026;-76
2023/01/03 04:21:01;;;;;;;0.80;0.75;;;9.10;76.80;;;;;;4990227;28;20094;-76
2023/01/03 04:23:26;;;;;;;1.67;1.00;;;9.10;76.90;;;;;;4990577;28;20026;-75
2023/01/03 04:25:52;;;;;;;1.40;0.93;;;9.00;77.10;;;;;;4992929;28;20030;-76
2023/01/03 04:28:18;;;;;;;2.08;1.17;;;9.00;77.50;;;;;;4974004;28;20019;-76
2023/01/03 04:30:44;;;;;;;2.65;0.93;;;9.00;77.50;;;;;;4990102;28;20363;-75
2023/01/03 04:33:10;;;;;;;2.20;0.50;;;9.00;77.40;;;;;;4990146;28;20525;-75
2023/01/03 04:35:35;;;;;;;0.40;0.40;;;8.90;77.50;;;;;;4990255;28;20077;-75
2023/01/03 04:38:01;;;;;;;1.23;0.60;;;8.90;77.50;;;;;;4972455;28;20402;-79
2023/01/03 04:40:27;;;;;;;0.57;0.57;;;9.00;77.60;;;;;;4972656;28;20489;-74
2023/01/03 04:45:38;;;;;;;0.80;0.50;;;9.10;77.50;;;;;;4990028;28;20068;-75
2023/01/03 04:48:04;;;;;;;1.70;0.70;;;9.20;77.20;;;;;;4989704;28;20058;-75
2023/01/03 04:50:31;;;;;;;1.38;0.93;;;9.20;77.00;;;;;;4989762;28;20471;-75
2023/01/03 04:52:57;;;;;;;1.33;0.73;;;9.20;77.10;;;;;;4991131;28;20482;-80
2023/01/03 04:55:23;;;;;;;1.67;1.10;;;9.10;77.10;;;;;;4993294;28;20041;-75
2023/01/03 04:57:48;;;;;;;1.92;1.15;;;9.10;77.20;;;;;;4993210;28;20030;-75
2023/01/03 05:00:15;;;;;;;2.80;1.40;;;9.10;77.30;;;;;;4993191;28;20659;-76
2023/01/03 05:02:40;;;;;;;1.83;1.10;;;9.10;77.40;;;;;;4975826;28;20026;-76
2023/01/03 05:05:07;;;;;;;1.20;1.10;;;9.10;77.50;;;;;;4993016;28;20418;-78
2023/01/03 05:07:32;;;;;;;1.33;0.82;;;9.10;77.50;;;;;;4975657;28;20027;-77
2023/01/03 05:09:58;;;;;;;0.95;0.85;;;9.00;77.40;;;;;;4993251;28;20042;-77
2023/01/03 05:12:24;;;;;;;1.38;0.82;;;9.10;77.50;;;;;;4993193;28;20037;-76
2023/01/03 05:14:50;;;;;;;1.75;1.00;;;9.00;77.50;;;;;;4992959;28;20030;-78
2023/01/03 05:17:19;;;;;;;0.85;0.77;;;9.10;77.60;;;;;;4975519;28;20091;-77
2023/01/03 05:27:59;;;;;;;1.10;0.80;;;9.10;77.90;;;;;;4993030;28;20033;-76
2023/01/03 05:30:25;;;;;;;2.08;1.00;;;9.10;77.80;;;;;;4992847;28;20471;-77
2023/01/03 05:32:50;;;;;;;2.85;1.08;;;9.00;77.50;;;;;;4992633;28;20030;-80
2023/01/03 05:35:16;;;;;;;7.82;1.52;;;9.10;77.60;;;;;;4992590;28;20482;-79
2023/01/03 05:37:42;;;;;;;3.15;1.30;;;9.10;77.60;;;;;;4992703;28;20368;-77
2023/01/03 05:40:08;;;;;;;1.25;0.90;;;9.10;77.50;;;;;;4992768;28;20048;-77
2023/01/03 05:42:34;;;;;;;1.73;1.00;;;9.00;77.30;;;;;;4992301;28;20061;-77
2023/01/03 05:45:00;;;;;;;2.50;1.38;;;9.10;77.40;;;;;;4992705;28;20037;-81
2023/01/03 05:47:25;;;;;;;1.25;1.05;;;9.10;77.30;;;;;;4992886;28;20027;-77
2023/01/03 05:49:51;;;;;;;2.15;1.35;;;9.00;77.20;;;;;;4974973;28;20129;-76
2023/01/03 05:52:16;;;;;;;1.90;1.23;;;9.00;77.30;;;;;;4992339;28;20103;-76
2023/01/03 05:54:42;;;;;;;1.52;1.10;;;9.00;77.20;;;;;;4992374;28;20349;-78
2023/01/03 05:57:08;;;;;;;2.60;0.95;;;9.00;77.20;;;;;;4992724;28;20479;-81
2023/01/03 05:59:33;;;;;;;2.85;1.00;;;9.10;77.50;;;;;;4992191;28;20026;-76
2023/01/03 06:01:59;;;;;;;1.48;0.77;;;9.00;77.40;;;;;;4992318;28;20061;-76
2023/01/03 06:04:24;;;;;;;1.00;0.75;;;9.10;77.50;;;;;;4991706;28;20034;-76
2023/01/03 06:06:50;;;;;;;1.92;0.68;;;9.10;77.50;;;;;;4992347;28;20026;-76
2023/01/03 06:09:16;;;;;;;2.05;0.90;;;9.00;77.50;;;;;;4992242;28;20172;-75
2023/01/03 06:11:41;;;;;;;1.63;0.70;;;8.90;77.60;;;;;;4992074;28;20037;-75
2023/01/03 06:14:07;;;;;;;1.27;0.73;;;8.90;77.50;;;;;;4992143;28;20045;-75
2023/01/03 06:19:17;;;;;;;0.88;0.80;;;8.90;77.60;;;;;;4991737;28;20032;-76
2023/01/03 06:21:42;;;;;;;3.65;0.82;;;8.80;77.50;;;;;;4975369;28;20105;-80
2023/01/03 06:24:08;;;;;;;1.10;0.90;;;8.90;77.60;;;;;;4992666;28;20047;-80
2023/01/03 06:26:34;;;;;;;1.48;0.95;;;8.90;77.40;;;;;;4992069;28;20022;-75
2023/01/03 06:29:00;;;;;;;0.77;0.75;;;8.90;77.30;;;;;;4992300;28;20030;-80
2023/01/03 06:31:26;;;;;;;2.10;0.80;;;8.90;77.10;;;;;;4992188;28;20463;-80
2023/01/03 06:33:51;;;;;;;1.67;1.15;;;8.90;77.10;;;;;;4974478;28;20054;-78
2023/01/03 06:36:19;;;;;;;0.77;0.77;;;9.00;76.90;;;;;;4991702;28;20034;-75
2023/01/03 06:38:45;;;;;;;0.75;0.73;;;8.90;77.00;;;;;;4991799;28;20046;-80
2023/01/03 06:41:12;;;;;;;2.10;1.50;;;9.00;76.90;;;;;;4991626;28;20030;-76
2023/01/03 06:43:37;;;;;;;2.60;1.83;;;8.90;77.00;;;;;;4991624;28;20506;-76
2023/01/03 06:54:22;;;;;;;5.07;2.73;;;8.70;78.10;;;;;;4991127;28;20209;-77
2023/01/03 06:56:52;;;;;;;3.05;2.50;;;8.70;78.20;;;;;;4991502;28;20591;-75
2023/01/03 06:59:18;;;;;;;4.22;2.40;;;8.60;78.10;;;;;;4991391;28;20027;-77
2023/01/03 07:01:45;;;;;;;3.85;2.28;;;8.60;78.30;;;;;;4991256;28;20157;-75
2023/01/03 07:04:11;;;;;;;3.58;2.00;;;8.60;78.50;;;;;;4991118;28;20031;-75
2023/01/03 07:06:38;;;;;;;8.38;3.35;;;8.50;78.70;;;;;;4991303;28;20471;-75
2023/01/03 07:09:03;;;;;;;5.00;2.88;;;8.50;79.00;;;;;;4991295;28;20034;-75
2023/01/03 07:11:29;;;;;;;5.22;3.55;;;8.40;79.10;;;;;;4991025;28;20072;-75
2023/01/03 07:13:57;;;;;;;4.43;3.35;;;8.40;79.20;;;;;;4990956;28;20125;-76
2023/01/03 07:16:28;;;;;;;7.93;4.32;;;8.30;79.60;;;;;;4991154;28;20083;-79
2023/01/03 07:18:54;;;;;;;8.60;4.43;;;8.30;79.40;;;;;;4991351;28;20033;-83
2023/01/03 07:21:21;;;;;;;5.72;3.22;;;8.20;79.20;;;;;;4990899;28;20050;-83
2023/01/03 07:23:47;;;;;;;4.85;3.00;;;8.20;80.20;;;;;;4990817;28;20101;-76
2023/01/03 07:26:12;;;;;;;4.30;2.67;;;8.20;79.60;;;;;;4990899;28;20027;-77
2023/01/03 07:28:38;;;;;;;3.53;2.17;;;8.10;79.60;;;;;;4990781;28;20141;-77
2023/01/03 07:31:05;;;;;;;3.72;1.70;;;8.10;79.80;;;;;;4990632;28;20027;-75
2023/01/03 07:33:32;;;;;;;3.00;1.77;;;8.00;79.70;;;;;;4990630;28;20034;-75
2023/01/03 07:36:04;;;;;;;3.22;1.73;;;8.00;79.60;;;;;;4973264;28;20113;-75
2023/01/03 07:38:30;;;;;;;1.55;1.30;;;8.00;79.60;;;;;;4990477;28;20089;-75
2023/01/03 07:41:00;;;;;;;1.17;1.05;;;8.00;79.40;;;;;;4990611;28;20026;-75
2023/01/03 07:43:38;;;;;;;2.53;1.10;;;8.00;79.10;;;;;;4990409;28;20030;-76
2023/01/03 07:46:09;;;;;;;3.38;1.70;;;8.00;79.00;;;;;;4990869;28;20138;-76
2023/01/03 07:48:35;;;;;;;3.45;2.05;;;8.10;78.80;;;;;;4990347;28;20143;-76
2023/01/03 07:51:02;;;;;;;2.50;2.10;;;8.00;78.30;;;;;;4990378;28;20049;-75
2023/01/03 07:53:28;;;;;;;5.38;2.13;;;8.00;78.10;;;;;;4990416;28;20463;-75
2023/01/03 07:56:00;;;;;;;4.15;1.85;;;8.00;78.00;;;;;;4990535;28;20035;-76
2023/01/03 07:58:26;;;;;;;6.70;2.47;;;8.10;78.40;;;;;;4972813;28;20117;-76
2023/01/03 08:00:51;;;;;;;3.63;2.47;;;8.10;78.30;;;;;;4990270;28;20110;-76
2023/01/03 08:03:17;;;;;;;3.35;2.45;;;8.10;78.20;;;;;;4990297;28;20057;-81
2023/01/03 08:05:43;;;;;;;6.47;2.63;;;8.20;77.70;;;;;;4990161;28;20113;-80
2023/01/03 08:08:09;;;;;;;4.80;1.58;;;8.20;77.30;;;;;;5050788;28;20021;-77
2023/01/03 08:13:20;;;;;;;3.08;1.67;;;8.30;76.90;;;;;;5072727;28;20063;-74
2023/01/03 08:15:54;;;;;;;3.38;1.50;;;8.30;76.70;;;;;;5071877;28;20035;-77
2023/01/03 08:18:22;;;;;;;4.10;2.20;;;8.30;76.60;;;;;;5071968;28;20029;-80
2023/01/03 08:20:48;;;;;;;4.13;1.73;;;8.30;76.40;;;;;;5072225;28;20082;-76
2023/01/03 08:23:14;;;;;;;1.77;1.20;;;8.40;76.30;;;;;;5072382;28;20095;-77
2023/01/03 08:25:40;;;;;;;3.05;1.27;;;8.50;76.10;;;;;;5054393;28;20112;-74
2023/01/03 08:28:07;;;;;;;6.90;1.50;;;8.40;75.90;;;;;;5074391;28;20033;-76
2023/01/03 08:30:39;;;;;;;1.90;1.40;;;8.40;75.90;;;;;;5076730;28;20089;-82
2023/01/03 08:33:09;;;;;;;2.38;1.40;;;8.40;76.00;;;;;;5076327;28;20127;-78
2023/01/03 08:35:38;;;;;;;3.42;1.90;;;8.40;76.00;;;;;;5076522;28;20566;-77
2023/01/03 08:38:07;;;;;;;19.27;3.42;;;8.40;76.00;;;;;;5076341;28;20017;-78
2023/01/03 08:40:35;;;;;;;14.18;2.97;;;8.40;79.70;;;;;;5076356;28;20031;-78
2023/01/03 08:43:03;;;;;;;6.72;1.50;;;8.70;88.20;;;;;;5076117;28;20338;-79
2023/01/03 08:45:29;;;;;;;2.85;1.70;;;8.90;85.40;;;;;;5076243;28;20039;-81
2023/01/03 08:47:57;;;;;;;3.38;1.98;;;9.10;82.80;;;;;;5065934;28;20032;-75
2023/01/03 08:50:25;;;;;;;3.97;1.90;;;9.50;79.70;;;;;;4993322;28;20027;-77
2023/01/03 08:52:51;;;;;;;3.33;1.90;;;9.70;77.80;;;;;;4993398;28;20031;-75
2023/01/03 08:55:16;;;;;;;4.07;2.10;;;9.80;73.10;;;;;;4993331;28;20060;-78
2023/01/03 08:57:42;;;;;;;3.67;2.05;;;9.80;73.00;;;;;;4993322;28;20023;-77
2023/01/03 09:00:08;;;;;;;3.60;2.00;;;9.90;72.90;;;;;;4993340;28;20049;-78
2023/01/03 09:02:35;;;;;;;6.55;2.35;;;9.90;71.50;;;;;;4993190;28;20125;-80
2023/01/03 09:05:00;;;;;;;3.65;2.25;;;9.90;72.00;;;;;;4993241;28;20463;-76
2023/01/03 09:07:26;;;;;;;7.50;2.78;;;10.00;71.90;;;;;;4993239;28;20035;-75
2023/01/03 09:09:51;;;;;;;6.22;2.42;;;10.10;71.20;;;;;;4993118;28;20022;-76
2023/01/03 09:12:17;;;;;;;4.65;2.08;;;10.10;70.20;;;;;;4975743;28;20033;-76
2023/01/03 09:14:43;;;;;;;5.70;2.22;;;10.10;69.20;;;;;;4992925;28;20045;-78
2023/01/03 09:17:08;;;;;;;3.88;2.00;;;10.10;71.00;;;;;;4992960;28;20463;-75
2023/01/03 09:19:34;;;;;;;3.28;1.98;;;10.30;70.70;;;;;;4993468;28;20034;-76
2023/01/03 09:21:59;;;;;;;3.05;2.13;;;10.50;70.90;;;;;;4993634;28;20041;-77
2023/01/03 09:24:25;;;;;;;4.10;2.03;;;10.70;69.00;;;;;;4992896;28;20110;-77
2023/01/03 09:26:51;;;;;;;4.13;2.38;;;10.90;69.00;;;;;;4992682;28;20046;-78
2023/01/03 09:29:16;;;;;;;3.53;2.17;;;11.00;68.60;;;;;;4992899;28;20034;-77
2023/01/03 09:31:42;;;;;;;3.47;2.22;;;11.20;67.70;;;;;;4992742;28;20027;-78
2023/01/03 09:34:07;;;;;;;3.40;2.15;;;11.30;67.40;;;;;;4993202;28;20103;-76
2023/01/03 09:36:35;;;;;;;2.95;1.83;;;11.50;67.60;;;;;;4992585;28;20037;-77
2023/01/03 09:39:01;;;;;;;3.05;1.80;;;11.40;66.10;;;;;;4991278;28;20463;-81
2023/01/03 09:41:27;;;;;;;3.40;1.48;;;11.50;66.10;;;;;;4975045;28;20018;-80
2023/01/03 09:44:01;;;;;;;5.25;1.90;;;11.20;65.10;;;;;;4992960;28;20026;-79
2023/01/03 09:46:28;;;;;;;5.43;1.65;;;10.90;65.20;;;;;;4992901;28;20066;-79
2023/01/03 09:48:55;;;;;;;4.15;1.63;;;10.70;66.00;;;;;;4992731;28;20025;-78
2023/01/03 10:03:44;;;;;;;6.18;2.13;;;10.30;67.40;;;;;;4992369;28;20198;-80
2023/01/03 10:06:39;;;;;;;2.95;1.77;;;10.30;68.10;;;;;;4992307;28;20030;-80
2023/01/03 10:09:24;;;;;;;3.65;2.28;;;10.20;68.30;;;;;;4992186;28;20033;-80
2023/01/03 10:12:17;;;;;;;5.80;1.75;;;10.20;68.50;;;;;;4974941;28;20394;-79
2023/01/03 10:15:14;;;;;;;4.18;2.00;;;10.40;68.20;;;;;;4992182;28;20121;-76
2023/01/03 10:17:52;;;;;;;9.10;2.65;;;10.50;67.70;;;;;;4991818;28;20025;-76
2023/01/03 10:20:24;;;;;;;5.32;2.30;;;10.30;68.70;;;;;;4992021;28;20079;-76
2023/01/03 10:22:53;;;;;;;3.22;2.08;;;10.20;69.10;;;;;;4992130;28;20022;-76
2023/01/03 10:25:21;;;;;;;6.15;2.10;;;10.30;68.60;;;;;;4992269;28;20060;-76
2023/01/03 10:27:55;;;;;;;6.00;1.95;;;10.30;67.70;;;;;;5010604;28;20044;-76
2023/01/03 10:30:30;;;;;;;3.35;1.77;;;10.30;67.80;;;;;;4993871;28;20026;-77
2023/01/03 10:33:23;;;;;;;5.00;2.35;;;10.30;66.90;;;;;;4991834;28;20503;-77
2023/01/03 10:35:50;;;;;;;4.32;2.30;;;10.30;66.50;;;;;;4991591;28;20040;-77
2023/01/03 10:38:16;;;;;;;3.47;1.98;;;10.30;66.10;;;;;;4991823;28;20023;-77
2023/01/03 10:40:46;;;;;;;2.65;1.48;;;10.30;66.20;;;;;;4991327;28;20050;-80
2023/01/03 10:43:15;;;;;;;4.07;2.00;;;10.50;65.80;;;;;;4991515;28;20022;-78
2023/01/03 10:45:57;;;;;;;1.73;1.10;;;10.60;65.10;;;;;;4991424;28;20121;-74
2023/01/03 10:48:24;;;;;;;2.33;1.20;;;10.80;64.60;;;;;;4991519;28;20024;-81
2023/01/03 10:50:50;;;;;;;2.08;1.35;;;10.90;64.10;;;;;;4991270;28;20125;-77
2023/01/03 10:53:20;;;;;;;3.53;1.38;;;11.10;63.40;;;;;;4991338;28;20423;-78
2023/01/03 10:55:49;;;;;;;2.42;1.40;;;11.40;62.70;;;;;;4991560;28;20041;-76
2023/01/03 10:58:17;;;;;;;2.17;1.35;;;11.70;61.70;;;;;;4991340;28;20086;-82
2023/01/03 11:00:42;;;;;;;1.58;0.80;;;11.90;60.40;;;;;;4991358;28;20069;-76
2023/01/03 11:03:08;;;;;;;1.90;0.90;;;12.30;59.40;;;;;;4991380;28;20050;-77
2023/01/03 11:05:35;;;;;;;2.15;1.00;;;12.50;58.10;;;;;;4991493;28;20023;-78
2023/01/03 11:08:03;;;;;;;3.28;1.30;;;12.70;56.70;;;;;;4991439;28;20109;-77
2023/01/03 11:10:49;;;;;;;6.57;1.33;;;12.90;56.40;;;;;;4991259;28;20087;-76
2023/01/03 11:13:26;;;;;;;1.45;1.02;;;13.30;55.20;;;;;;4991205;28;20045;-77
2023/01/03 11:16:00;;;;;;;2.25;1.08;;;13.70;53.50;;;;;;4991149;28;20027;-77
2023/01/03 11:18:26;;;;;;;2.40;1.10;;;14.30;51.60;;;;;;4991194;28;20522;-77
2023/01/03 11:21:06;;;;;;;2.70;1.20;;;14.70;49.60;;;;;;4991133;28;20100;-77
2023/01/03 11:24:06;;;;;;;3.53;1.80;;;14.90;48.80;;;;;;4991034;28;20090;-76
2023/01/03 11:26:49;;;;;;;5.20;1.88;;;15.40;47.50;;;;;;4973607;28;20023;-75
2023/01/03 11:29:37;;;;;;;3.40;1.90;;;16.40;45.50;;;;;;4991233;28;20030;-77
2023/01/03 11:32:23;;;;;;;4.22;1.52;;;17.20;42.80;;;;;;4991220;28;20032;-77
2023/01/03 11:35:12;;;;;;;2.53;1.35;;;17.90;40.80;;;;;;4990869;28;20031;-77
2023/01/03 11:38:03;;;;;;;3.00;1.48;;;18.50;39.30;;;;;;4991034;28;20496;-78
2023/01/03 11:40:29;;;;;;;1.98;1.08;;;19.20;37.70;;;;;;4990948;28;20039;-77
2023/01/03 11:43:22;;;;;;;1.73;1.10;;;20.20;35.80;;;;;;4990966;28;20019;-76
2023/01/03 11:46:13;;;;;;;1.65;1.25;;;21.30;33.60;;;;;;4990915;28;20037;-77
2023/01/03 11:49:08;;;;;;;3.17;1.38;;;23.00;30.60;;;;;;4990770;28;20026;-77
2023/01/03 11:52:06;;;;;;;2.13;1.35;;;24.60;27.20;;;;;;4988918;28;20053;-78
2023/01/03 11:54:50;;;;;;;2.40;1.13;;;25.70;24.70;;;;;;4990587;28;20040;-77
2023/01/03 11:57:25;;;;;;;1.73;1.23;;;26.90;22.10;;;;;;4990726;28;20033;-78
2023/01/03 11:59:55;;;;;;;;;;;27.70;19.90;;;;;;4990873;28;20018;-77
2023/01/03 12:02:33;;;;;;;1.48;0.90;;;27.40;19.30;;;;;;4989951;28;19909;-77
2023/01/03 12:05:17;;;;;;;1.30;0.65;;;27.10;19.90;;;;;;4990488;28;20033;-80
2023/01/03 12:08:14;;;;;;;1.17;0.93;;;27.00;20.00;;;;;;4990655;28;20083;-78
2023/01/03 12:10:58;;;;;;;4.25;1.00;;;26.70;19.50;;;;;;4980192;28;20054;-76
2023/01/03 12:13:39;;;;;;;1.15;1.00;;;24.20;22.60;;;;;;4990531;28;20022;-76
2023/01/03 12:16:10;;;;;;;1.85;1.02;;;21.70;28.30;;;;;;4990333;28;20117;-77
2023/01/03 12:18:59;;;;;;;0.80;0.80;;;20.00;31.80;;;;;;4990463;28;20022;-76
2023/01/03 12:21:35;;;;;;;2.35;0.90;;;18.60;34.90;;;;;;4990508;28;20037;-76
2023/01/03 12:24:20;;;;;;;2.95;1.30;;;17.70;36.90;;;;;;4990345;28;20025;-76
2023/01/03 12:26:52;;;;;;;2.63;1.13;;;17.60;37.70;;;;;;4990348;28;20462;-77
2023/01/03 12:29:25;;;;;;;2.53;0.98;;;17.10;38.60;;;;;;4990471;28;20084;-77
2023/01/03 12:32:00;;;;;;;2.40;0.85;;;16.60;39.90;;;;;;4990427;28;20019;-78
2023/01/03 12:34:55;;;;;;;4.15;1.08;;;16.20;41.40;;;;;;4993546;28;20038;-77
2023/01/03 12:37:25;;;;;;;1.48;0.88;;;15.90;42.50;;;;;;4990212;28;20041;-79
2023/01/03 12:39:55;;;;;;;3.38;0.90;;;15.80;42.20;;;;;;4990214;28;20030;-77
2023/01/03 12:42:30;;;;;;;2.55;0.70;;;15.60;42.50;;;;;;4990235;28;20026;-76
2023/01/03 12:45:35;;;;;;;0.93;0.50;;;15.80;42.50;;;;;;4990180;28;20029;-79
2023/01/03 12:48:06;;;;;;;2.92;0.52;;;15.80;42.20;;;;;;4990184;28;20031;-79
2023/01/03 12:50:40;;;;;;;1.33;0.60;;;15.70;42.20;;;;;;4990051;28;20034;-78
2023/01/03 12:53:28;;;;;;;1.00;0.40;;;15.70;42.30;;;;;;4990156;28;20363;-77
2023/01/03 12:56:18;;;;;;;4.90;1.15;;;15.50;42.60;;;;;;4989717;28;20027;-77
2023/01/03 12:59:03;;;;;;;2.95;0.80;;;15.00;44.60;;;;;;4990076;28;20018;-78
2023/01/03 13:01:44;;;;;;;2.73;0.63;;;14.50;46.20;;;;;;4990158;28;20027;-77
2023/01/03 13:04:20;;;;;;;2.80;0.77;;;14.20;46.60;;;;;;4989908;28;20614;-77
2023/01/03 13:06:49;;;;;;;1.30;0.73;;;14.00;47.10;;;;;;4989956;28;20480;-77
2023/01/03 13:09:18;;;;;;;1.48;0.77;;;13.80;48.00;;;;;;4989773;28;20034;-77
2023/01/03 13:11:52;;;;;;;2.75;0.93;;;13.60;48.20;;;;;;4989752;28;20026;-77
2023/01/03 13:14:21;;;;;;;2.38;0.95;;;13.50;48.90;;;;;;4991343;28;20029;-76
2023/01/03 13:16:49;;;;;;;0.85;0.57;;;13.30;50.70;;;;;;4993001;28;20026;-79
2023/01/03 13:19:34;;;;;;;1.33;0.82;;;14.70;48.70;;;;;;4993109;28;20022;-79
2023/01/03 13:22:17;;;;;;;1.15;0.98;;;17.60;42.10;;;;;;4953246;28;20045;-79
2023/01/03 13:24:44;;;;;;;4.05;1.60;;;20.80;35.20;;;;;;4993101;28;20037;-78
2023/01/03 13:27:16;;;;;;;2.67;1.20;;;24.10;28.40;;;;;;4992994;28;20463;-78
2023/01/03 13:29:57;;;;;;;3.97;2.92;;;25.60;23.10;;;;;;4993080;28;20152;-78
2023/01/03 13:32:22;;;;;;;4.93;2.75;;;25.20;22.30;;;;;;4992922;28;20022;-77
2023/01/03 13:34:57;;;;;;;4.45;1.95;;;24.50;24.10;;;;;;4992744;28;20482;-77
2023/01/03 13:37:47;;;;;;;2.20;1.05;;;25.20;23.30;;;;;;4992875;28;20033;-78
2023/01/03 13:40:26;;;;;;;1.50;0.70;;;26.00;21.70;;;;;;4982858;28;20023;-79
2023/01/03 13:43:07;;;;;;;2.00;0.80;;;26.10;21.10;;;;;;4992601;28;20558;-78
2023/01/03 13:45:33;;;;;;;3.15;0.77;;;27.40;19.90;;;;;;4975092;28;20394;-78
2023/01/03 13:48:09;;;;;;;2.58;0.85;;;28.70;18.00;;;;;;4992677;28;20026;-78
2023/01/03 13:50:36;;;;;;;3.13;1.00;;;29.90;16.30;;;;;;4975197;28;20408;-78
2023/01/03 13:53:24;;;;;;;1.48;0.90;;;30.90;15.10;;;;;;4992416;28;20117;-78
2023/01/03 13:56:16;;;;;;;3.97;0.77;;;31.70;14.10;;;;;;4992118;28;20037;-79
2023/01/03 13:58:53;;;;;;;1.92;0.70;;;32.60;13.10;;;;;;4992281;28;20023;-78
2023/01/03 14:01:19;;;;;;;0.93;0.50;;;33.00;12.50;;;;;;4992514;28;20352;-78
2023/01/03 14:04:02;;;;;;;1.83;0.55;;;33.30;11.80;;;;;;4992299;28;20030;-78
2023/01/03 14:06:57;;;;;;;0.73;0.60;;;33.50;11.30;;;;;;4974874;28;20432;-77
2023/01/03 14:09:40;;;;;;;1.08;0.60;;;32.80;11.10;;;;;;4992214;28;20034;-79
2023/01/03 14:12:40;;;;;;;1.10;0.52;;;31.90;12.30;;;;;;4992271;28;20079;-77